Accueil
METAR-TAF:

METAR-TAF

Aéroports :

Aéroport de Mannheim

Mannheim, Allemagne

latitude: 49-28-21N, longitude: 008-30-56E, altitude: 100 m

Observation

Le bulletin a été fait il y a 27 minutes, à 01:20 UTC
Vent 5 kt de nord
Température 3°C
Humidité 87%
Pression 1019 hPa
Visibilité 10 km ou plus

METAR: EDFM 030120Z AUTO 36005KT 9999 // OVC019/// 03/01 Q1019

Heure: 02:47 (01:47 UTC)

Prévision

Le bulletin a été fait il y a 8 heures et 47 minutes, à 17:00 UTC
Prévision valable du 02 à 18 UTC au 02 à 21 UTC
Vent 6 kt de nord
Visibilité 10 km ou plus
Nuages épars à une hauteur de 1200 ft
Ciel couvert à une hauteur de 1500 ft
Probabilité 30% :
Temporairement
du 02 à 18 UTC au 02 à 21 UTC
Visibilité: 3500 m
Ciel couvert à une hauteur de 1200 ft
faible bruine, brume

TAF: EDFM 021700Z 0218/0221 01006KT 9999 SCT012 OVC015 PROB30 TEMPO 0218/0221 3500 -DZ BR OVC012

Observations et prévisions météorologiques de plus de 4000 aéroports (messages METAR et TAF).

Les stations disponibles sont représentées par des disques jaunes et rouges sur la carte.

Passer la souris dessus pour voir le nom de la station.

Cliquer dessus pour voir les observations et prévisions météorologiques.

Pour changer de carte: cliquez sur les boutons verts avec une croix noire pour zoomer, sur le bouton vert avec un tiret pour effectuer un zoom arrière, ou sur les flèches vertes pour les cartes adjacentes.


METAR-TAF: